Flight Track Log - Related Links

Times and Time Zones

All times are in EST time to prevent confusion due to time zone crossing. See the N789EX flight status page for this flight to view local times or setup timezone preferences in your user account.

Time Position Orientation Groundspeed Altitude Reporting Facility
EST Latitude Longitude Course Direction KTS MPH feet Rate Location/Type
Sun 04:16:01 PM 47.5164 -119.3206 35° Northeast 247 284 9,400  Level Seattle Center
Sun 04:17:02 PM 47.5672 -119.2686 35° Northeast 248 285 10,000 1,131 Climbing Seattle Center
Sun 04:18:03 PM 47.5678 -119.1531 90° East 263 303 11,700 1,525 Climbing Seattle Center
Sun 04:19:04 PM 47.5692 -119.0692 89° East 209 241 13,100 1,033 Climbing Seattle Center
Sun 04:20:05 PM 47.5694 -118.9836 90° East 208 239 13,800 689 Climbing Seattle Center
Sun 04:21:06 PM 47.5697 -118.8822 90° East 245 282 14,500 689 Climbing Seattle Center
Sun 04:22:07 PM 47.5686 -118.7742 91° East 257 296 15,200 1,082 Climbing Seattle Center
Sun 04:23:08 PM 47.5706 -118.6425 89° East 313 360 16,700 1,377 Climbing Seattle Center
Sun 04:24:09 PM 47.5686 -118.4983 91° East 361 415 18,000 1,180 Climbing Seattle Center
Sun 04:25:10 PM 47.5683 -118.3536 90° East 402 463 19,100 1,672 Climbing Seattle Center
Sun 04:26:11 PM 47.5675 -118.1739 90° East 432 497 21,400 2,508 Climbing Seattle Center
Sun 04:27:12 PM 47.5658 -117.9475 91° East 458 527 24,200 2,361 Climbing Seattle Center
Sun 04:28:13 PM 47.5650 -117.7542 90° East 468 539 26,200 1,820 Climbing Seattle Center
Sun 04:29:14 PM 47.5617 -117.5556 91° East 481 554 27,900 1,672 Climbing Seattle Center
Sun 04:30:15 PM 47.5517 -117.3483 94° East 508 585 29,600 1,672 Climbing Seattle Center
Sun 04:31:16 PM 47.5397 -117.1289 95° East 513 590 31,300 1,561 Climbing Seattle Center
Sun 04:32:18 PM 47.5314 -116.9417 94° East 522 601 32,800 829 Climbing Seattle Center
Sun 04:33:19 PM 47.5175 -116.6867 95° East 524 603 33,000 98 Climbing Seattle Center
Sun 04:34:20 PM 47.5058 -116.4736 95° East 522 601 33,000  Level Seattle Center
Sun 04:35:21 PM 47.4939 -116.2625 95° East 519 597 33,000  Level Seattle Center
Sun 04:36:22 PM 47.4825 -116.0511 94° East 519 597 33,000 -49 Level Seattle Center
Sun 04:37:23 PM 47.5542 -115.8906 56° Northeast 476 548 32,900  Descending Seattle Center
Sun 04:38:24 PM 47.6689 -115.8606 10° North 442 509 33,000  Climbing Seattle Center
Sun 04:39:25 PM 47.7639 -115.9442 329° Northwest 418 481 32,900 885 Descending Seattle Center
Sun 04:40:26 PM 47.7833 -116.1183 279° West 437 503 34,800 984 Climbing Seattle Center
Sun 04:41:27 PM 47.7992 -116.2878 278° West 420 483 34,900 49 Climbing Seattle Center
Sun 04:42:28 PM 47.8169 -116.4539 279° West 413 475 34,900  Level Seattle Center
Sun 04:43:29 PM 47.8383 -116.6544 279° West 413 475 34,900 -246 Level Seattle Center
Sun 04:44:30 PM 47.8567 -116.8206 279° West 412 474 34,400  Descending Seattle Center
Sun 04:45:31 PM 47.8789 -116.9864 281° West 414 476 34,900 295 Climbing Seattle Center
Sun 04:46:32 PM 47.8925 -117.1617 277° West 425 489 35,000  Climbing Seattle Center
Sun 04:47:33 PM 47.9025 -117.3450 275° West 440 506 34,900 -246 Descending Seattle Center
Sun 04:48:34 PM 47.9156 -117.5281 276° West 448 516 34,500 -146 Descending Seattle Center
Sun 04:49:36 PM 47.9297 -117.7106 277° West 448 516 34,600 73 Climbing Seattle Center
Sun 04:55:24 PM 48.0379 -118.8630 277° West 470 541 35,000 266 Climbing FlightAware ADS-B
Sun 04:56:00 PM 48.0438 -118.9770 274° West 458 527 36,300 2,149 Climbing FlightAware ADS-B
Sun 04:56:31 PM 48.0502 -119.0720 276° West 448 516 37,400 1,810 Climbing FlightAware ADS-B
Sun 04:57:03 PM 48.0575 -119.1680 277° West 434 499 38,200 1,429 Climbing FlightAware ADS-B
Sun 04:57:34 PM 48.0644 -119.2570 277° West 428 493 38,900 1,645 Climbing FlightAware ADS-B
Sun 04:58:05 PM 48.0712 -119.3470 276° West 415 478 39,900 1,082 Climbing FlightAware ADS-B
Sun 04:58:35 PM 48.0778 -119.4330 277° West 416 479 40,000 100 Climbing FlightAware ADS-B
Sun 04:59:05 PM 48.0841 -119.5190 276° West 413 475 40,000  Level FlightAware ADS-B
Sun 04:59:36 PM 48.0906 -119.6050 276° West 414 476 40,000  Level FlightAware ADS-B
Sun 05:00:06 PM 48.0969 -119.6910 276° West 411 473 40,000 -200 Level FlightAware ADS-B
Sun 05:00:36 PM 48.1031 -119.7730 276° West 411 473 39,800 -600 Descending FlightAware ADS-B
Sun 05:01:06 PM 48.1103 -119.8590 277° West 413 475 39,400 -400 Descending FlightAware ADS-B
Sun 05:01:36 PM 48.1181 -119.9460 278° West 419 482 39,400 -111 Level FlightAware ADS-B
Sun 05:02:00 PM 48.1248 -120.0120 279° West 418 481 39,300 -439 Descending FlightAware ADS-B
Sun 05:02:17 PM 48.1314 -120.0627 281° West 417 480 39,100 -200 Descending FlightAware ADS-B
Sun 05:02:30 PM 48.1358 -120.0970 281° West 417 480 39,200 486 Climbing FlightAware ADS-B
Sun 05:02:54 PM 48.1440 -120.1650 280° West 420 483 39,400 486 Climbing FlightAware ADS-B
Sun 05:03:07 PM 48.1475 -120.2050 277° West 423 487 39,500 682 Climbing FlightAware ADS-B
Sun 05:03:38 PM 48.1501 -120.2920 273° West 425 489 39,900 789 Climbing FlightAware ADS-B
Sun 05:03:45 PM 48.1504 -120.3157 271° West 425 489 40,000 400 Climbing FlightAware ADS-B
Sun 05:04:08 PM 48.1514 -120.3810 271° West 427 491 40,100 222 Climbing FlightAware ADS-B
Sun 05:04:39 PM 48.1535 -120.4720 272° West 432 497 40,200 194 Climbing FlightAware ADS-B
Sun 05:05:10 PM 48.1573 -120.5670 273° West 438 504 40,300 182 Climbing FlightAware ADS-B
Sun 05:05:12 PM 48.1575 -120.5709 274° West 439 505 40,300 194 Level FlightAware ADS-B
Sun 05:05:41 PM 48.1628 -120.6600 275° West 441 507 40,400 273 Climbing FlightAware ADS-B
Sun 05:05:56 PM 48.1658 -120.7059 276° West 439 505 40,500 400 Climbing FlightAware ADS-B
Sun 05:06:11 PM 48.1685 -120.7510 275° West 439 505 40,600 200 Climbing FlightAware ADS-B
Sun 05:06:26 PM 48.1712 -120.7964 275° West 440 506 40,600  Level FlightAware ADS-B
Sun 05:06:41 PM 48.1736 -120.8420 275° West 440 506 40,600 150 Level FlightAware ADS-B
Sun 05:07:06 PM 48.1776 -120.9196 274° West 434 499 40,700 200 Climbing FlightAware ADS-B
Sun 05:07:11 PM 48.1784 -120.9330 275° West 434 499 40,700 -171 Level FlightAware ADS-B
Sun 05:07:41 PM 48.1826 -121.0230 274° West 437 503 40,600 -176 Descending FlightAware ADS-B
Sun 05:07:45 PM 48.1832 -121.0359 274° West 437 503 40,600 -194 Level FlightAware ADS-B
Sun 05:08:12 PM 48.1872 -121.1160 274° West 432 497 40,500 -211 Descending FlightAware ADS-B
Sun 05:08:42 PM 48.1924 -121.2050 275° West 437 503 40,400 -176 Descending FlightAware ADS-B
Sun 05:08:46 PM 48.1932 -121.2177 275° West 437 503 40,400 -194 Level FlightAware ADS-B
Sun 05:09:13 PM 48.1987 -121.2980 276° West 443 510 40,300 -150 Descending FlightAware ADS-B
Sun 05:09:26 PM 48.2017 -121.3392 276° West 446 513 40,300  Level FlightAware ADS-B
Sun 05:09:43 PM 48.2054 -121.3900 276° West 449 517 40,300 -194 Level FlightAware ADS-B
Sun 05:09:57 PM 48.2083 -121.4336 276° West 451 519 40,200 -400 Descending FlightAware ADS-B
Sun 05:09:58 PM 48.2086 -121.4370 277° West 451 519 40,200  Level FlightAware ADS-B
Sun 05:10:05 PM 48.2111 -121.4590 280° West 449 517 40,200  Level FlightAware ADS-B
Sun 05:10:16 PM 48.2180 -121.4910 288° West 446 513 40,200  Level FlightAware ADS-B
Sun 05:10:17 PM 48.2187 -121.4933 295° West 443 510 40,200  Level FlightAware ADS-B
Sun 05:10:24 PM 48.2260 -121.5120 300° West 445 512 40,200  Level FlightAware ADS-B
Sun 05:10:30 PM 48.2337 -121.5260 310° West 445 512 40,200 -400 Level FlightAware ADS-B
Sun 05:10:39 PM 48.2477 -121.5440 319° Northwest 446 513 40,100 -353 Descending FlightAware ADS-B
Sun 05:10:47 PM 48.2613 -121.5560 330° Northwest 449 517 40,100  Level FlightAware ADS-B
Sun 05:10:54 PM 48.2767 -121.5640 341° North 453 521 40,100  Level FlightAware ADS-B
Sun 05:11:01 PM 48.2916 -121.5680 350° North 458 527 40,100  Level FlightAware ADS-B
Sun 05:11:06 PM 48.3001 -121.5680 360° North 460 529 40,100  Level FlightAware ADS-B
Sun 05:11:09 PM 48.3087 -121.5670 North 463 533 40,100  Level FlightAware ADS-B
Sun 05:11:16 PM 48.3218 -121.5630 11° North 469 540 40,100  Level FlightAware ADS-B
Sun 05:11:24 PM 48.3394 -121.5540 19° North 476 548 40,100  Level FlightAware ADS-B
Sun 05:11:31 PM 48.3517 -121.5430 31° Northeast 482 555 40,100  Level FlightAware ADS-B
Sun 05:11:37 PM 48.3634 -121.5290 38° Northeast 488 562 40,100  Level FlightAware ADS-B
Sun 05:11:41 PM 48.3698 -121.5200 43° Northeast 491 565 40,100  Level FlightAware ADS-B
Sun 05:11:50 PM 48.3820 -121.4960 53° Northeast 500 575 40,100  Level FlightAware ADS-B
Sun 05:11:58 PM 48.3905 -121.4700 64° Northeast 507 583 40,100 -500 Level FlightAware ADS-B
Sun 05:12:02 PM 48.3934 -121.4580 70° East 510 587 40,000 -1,000 Descending FlightAware ADS-B
Sun 05:12:04 PM 48.3951 -121.4490 74° East 511 588 40,000  Level FlightAware ADS-B
Sun 05:12:25 PM 48.4071 -121.3800 75° East 517 595 40,000  Level FlightAware ADS-B
Sun 05:12:40 PM 48.4128 -121.3250 81° East 523 602 40,000  Level FlightAware ADS-B
Sun 05:12:47 PM 48.4133 -121.3000 88° East 526 605 40,000  Level FlightAware ADS-B
Sun 05:12:52 PM 48.4129 -121.2820 92° East 528 608 40,000  Level FlightAware ADS-B
Sun 05:13:24 PM 48.4054 -121.1650 95° East 531 611 40,000  Level FlightAware ADS-B
Sun 05:13:54 PM 48.3966 -121.0520 97° East 533 613 40,000  Level FlightAware ADS-B
Sun 05:13:55 PM 48.3963 -121.0485 97° East 533 613 40,000  Level FlightAware ADS-B
Sun 05:14:26 PM 48.3864 -120.9360 98° East 532 612 40,000  Level FlightAware ADS-B
Sun 05:14:34 PM 48.3837 -120.9056 98° East 531 611 40,000  Level FlightAware ADS-B
Sun 05:14:56 PM 48.3760 -120.8260 98° East 534 615 40,000  Level FlightAware ADS-B
Sun 05:15:16 PM 48.3689 -120.7541 98° East 535 616 40,000  Level FlightAware ADS-B
Sun 05:15:27 PM 48.3648 -120.7140 99° East 535 616 40,000  Level FlightAware ADS-B
Sun 05:15:57 PM 48.3535 -120.6040 99° East 535 616 40,000  Level FlightAware ADS-B
Sun 05:16:05 PM 48.3502 -120.5731 99° East 534 615 40,000 -200 Level FlightAware ADS-B
Sun 05:16:27 PM 48.3418 -120.4930 99° East 533 613 39,900  Descending FlightAware ADS-B
Sun 05:16:58 PM 48.3307 -120.3830 99° East 527 606 40,000  Climbing FlightAware ADS-B
Sun 05:17:28 PM 48.3189 -120.2750 99° East 527 606 39,900 -176 Descending FlightAware ADS-B
Sun 05:17:32 PM 48.3173 -120.2602 99° East 527 606 39,900 -158 Level FlightAware ADS-B
Sun 05:18:06 PM 48.3048 -120.1350 98° East 524 603 39,800  Descending FlightAware ADS-B
Sun 05:18:13 PM 48.3027 -120.1121 98° East 522 601 39,900 -194 Climbing FlightAware ADS-B
Sun 05:18:37 PM 48.2942 -120.0270 98° East 524 603 39,700 -154 Descending FlightAware ADS-B
Sun 05:19:31 PM 48.2737 -119.8340 99° East 523 602 39,700 128 Level FlightAware ADS-B
Sun 05:20:11 PM 48.2591 -119.6880 98° East 521 600 39,900 169 Climbing FlightAware ADS-B
Sun 05:20:42 PM 48.2505 -119.5780 97° East 522 601 39,900 -97 Level FlightAware ADS-B
Sun 05:21:13 PM 48.2421 -119.4670 96° East 525 604 39,800 -484 Descending FlightAware ADS-B
Sun 05:21:44 PM 48.2328 -119.3540 97° East 531 611 39,400 -387 Descending FlightAware ADS-B
Sun 05:22:15 PM 48.2243 -119.2420 96° East 528 608 39,400  Level FlightAware ADS-B
Sun 05:22:47 PM 48.2159 -119.1270 96° East 528 608 39,400 160 Level FlightAware ADS-B
Sun 05:23:30 PM 48.2038 -118.9700 97° East 526 605 39,600 -69 Climbing FlightAware ADS-B
Sun 05:24:14 PM 48.1897 -118.8281 97° East 526 605 39,300 286 Descending Seattle Center
Sun 05:25:15 PM 48.1689 -118.6133 98° East 520 598 40,100 443 Climbing Seattle Center
Sun 05:26:16 PM 48.1403 -118.4033 101° East 515 593 40,200 -148 Climbing Seattle Center
Sun 05:27:17 PM 48.1200 -118.1933 98° East 512 589 39,800 -148 Descending Seattle Center
Sun 05:28:18 PM 48.0947 -117.9881 100° East 503 579 39,900 -49 Climbing Seattle Center
Sun 05:29:19 PM 48.0667 -117.7783 101° East 511 588 39,700  Descending Seattle Center
Sun 05:30:20 PM 48.0356 -117.5728 103° East 510 587 39,900  Climbing Seattle Center
Sun 05:31:21 PM 48.0061 -117.3772 103° East 490 564 39,700 -148 Descending Seattle Center
Sun 05:32:22 PM 47.9794 -117.1778 101° East 487 560 39,600 -49 Descending Seattle Center
Sun 05:33:23 PM 47.9519 -116.9772 101° East 488 562 39,600 -344 Level Seattle Center
Sun 05:34:24 PM 47.9306 -116.7775 99° East 485 558 38,900 -787 Descending Seattle Center
Sun 05:35:25 PM 47.8342 -116.6344 135° Southeast 503 579 38,000 -496 Descending Seattle Center
Sun 05:36:25 PM 47.6964 -116.6639 188° South 509 586 37,900  Descending Seattle Center
Sun 05:37:26 PM 47.6347 -116.8256 241° Southwest 462 532 38,000  Climbing Seattle Center
Sun 05:38:27 PM 47.6469 -117.0319 275° West 442 509 37,900 -49 Descending Seattle Center
Sun 05:39:28 PM 47.6589 -117.2097 276° West 437 503 37,900 49 Level Seattle Center
Sun 05:40:29 PM 47.6700 -117.3842 275° West 437 503 38,000 49 Climbing Seattle Center
Sun 05:41:30 PM 47.6822 -117.5642 276° West 441 507 38,000 -49 Level Seattle Center
Sun 05:42:31 PM 47.6931 -117.7453 275° West 444 511 37,900 -49 Descending Seattle Center
Sun 05:43:32 PM 47.7044 -117.9275 275° West 445 512 37,900 49 Level Seattle Center
Sun 05:44:33 PM 47.7150 -118.1097 275° West 445 512 38,000 14 Climbing Seattle Center
Sun 05:50:31 PM 47.7758 -119.2360 275° West 449 517 38,000  Level FlightAware ADS-B
Sun 05:51:01 PM 47.7802 -119.3290 274° West 450 518 38,000  Level FlightAware ADS-B
Sun 05:51:32 PM 47.7848 -119.4240 274° West 450 518 38,000  Level FlightAware ADS-B
Sun 05:52:02 PM 47.7890 -119.5160 274° West 448 516 38,000 -500 Level FlightAware ADS-B
Sun 05:52:32 PM 47.7933 -119.6100 274° West 443 510 37,500 -1,800 Descending FlightAware ADS-B
Sun 05:53:02 PM 47.7974 -119.7000 274° West 443 510 36,200 -2,960 Descending FlightAware ADS-B
Sun 05:53:47 PM 47.8034 -119.8370 274° West 450 518 33,800 -3,280 Descending FlightAware ADS-B
Sun 05:54:17 PM 47.8074 -119.9300 274° West 453 521 32,100 -2,951 Descending FlightAware ADS-B
Sun 05:54:48 PM 47.8115 -120.0240 274° West 446 513 30,800 -2,459 Descending FlightAware ADS-B
Sun 05:55:18 PM 47.8152 -120.1170 273° West 436 502 29,600 -2,323 Descending FlightAware ADS-B
Sun 05:55:50 PM 47.8190 -120.2100 274° West 426 490 28,400 -2,250 Descending FlightAware ADS-B
Sun 05:56:22 PM 47.8227 -120.3030 273° West 421 484 27,200 -2,190 Descending FlightAware ADS-B
Sun 05:56:53 PM 47.8262 -120.3910 273° West 421 484 26,100 -2,164 Descending FlightAware ADS-B
Sun 05:57:23 PM 47.8295 -120.4770 273° West 412 474 25,000 -2,164 Descending FlightAware ADS-B
Sun 05:57:54 PM 47.8327 -120.5630 273° West 402 463 23,900 -2,066 Descending FlightAware ADS-B
Sun 05:58:24 PM 47.8357 -120.6450 273° West 394 453 22,900 -2,049 Descending FlightAware ADS-B
Sun 05:58:35 PM 47.8368 -120.6750 273° West 389 448 22,500 -2,200 Descending FlightAware ADS-B
Sun 05:58:54 PM 47.8386 -120.7250 273° West 385 443 21,800 -2,082 Descending FlightAware ADS-B
Sun 05:59:24 PM 47.8414 -120.8040 273° West 386 444 20,800 -2,100 Descending FlightAware ADS-B
Sun 05:59:54 PM 47.8441 -120.8840 273° West 386 444 19,700 -2,100 Descending FlightAware ADS-B
Sun 06:00:24 PM 47.8470 -120.9650 273° West 391 450 18,700 -2,164 Descending FlightAware ADS-B
Sun 06:00:55 PM 47.8496 -121.0470 273° West 397 457 17,500 -2,656 Descending FlightAware ADS-B
Sun 06:01:25 PM 47.8521 -121.1310 273° West 402 463 16,000 -2,600 Descending FlightAware ADS-B
Sun 06:01:55 PM 47.8548 -121.2120 273° West 396 456 14,900 -2,164 Descending FlightAware ADS-B
Sun 06:02:26 PM 47.8602 -121.2930 276° West 385 443 13,800 -2,100 Descending FlightAware ADS-B
Sun 06:02:55 PM 47.8659 -121.3690 276° West 376 433 12,800 -2,136 Descending FlightAware ADS-B
Sun 06:03:25 PM 47.8710 -121.4470 276° West 368 423 11,700 -1,574 Descending FlightAware ADS-B
Sun 06:03:56 PM 47.8757 -121.5220 275° West 347 399 11,200 -787 Descending FlightAware ADS-B
Sun 06:04:26 PM 47.8797 -121.5910 275° West 322 371 10,900 -500 Descending FlightAware ADS-B
Sun 06:04:56 PM 47.8835 -121.6550 275° West 299 344 10,700 -462 Descending FlightAware ADS-B
Sun 06:05:05 PM 47.8842 -121.6730 273° West 294 338 10,600 -429 Descending FlightAware ADS-B
Sun 06:05:10 PM 47.8836 -121.6830 265° West 294 338 10,600  Level FlightAware ADS-B
Sun 06:05:14 PM 47.8827 -121.6900 259° West 294 338 10,600 -750 Level FlightAware ADS-B
Sun 06:05:18 PM 47.8810 -121.6980 252° West 296 341 10,500 -1,091 Descending FlightAware ADS-B
Sun 06:05:25 PM 47.8771 -121.7110 246° West 300 345 10,400 -600 Descending FlightAware ADS-B
Sun 06:05:28 PM 47.8745 -121.7170 237° Southwest 300 345 10,400 -750 Level FlightAware ADS-B
Sun 06:05:33 PM 47.8708 -121.7240 232° Southwest 301 346 10,300 -1,263 Descending FlightAware ADS-B
Sun 06:05:47 PM 47.8564 -121.7450 224° Southwest 301 346 10,000 -1,333 Descending FlightAware ADS-B
Sun 06:05:51 PM 47.8517 -121.7500 216° Southwest 302 348 9,900 -1,500 Descending FlightAware ADS-B
Sun 06:05:55 PM 47.8468 -121.7550 214° Southwest 302 348 9,800 -1,333 Descending FlightAware ADS-B
Sun 06:06:00 PM 47.8414 -121.7600 212° Southwest 302 348 9,700 -1,500 Descending FlightAware ADS-B
Sun 06:06:07 PM 47.8325 -121.7660 204° Southwest 301 346 9,500 -1,636 Descending FlightAware ADS-B
Sun 06:06:22 PM 47.8130 -121.7770 201° Southwest 303 349 9,100 -1,400 Descending FlightAware ADS-B
Sun 06:06:37 PM 47.7928 -121.7880 200° South 302 348 8,800 -1,161 Descending FlightAware ADS-B
Sun 06:06:53 PM 47.7729 -121.7990 200° South 297 342 8,500 -1,161 Descending FlightAware ADS-B
Sun 06:07:08 PM 47.7532 -121.8110 202° Southwest 295 339 8,200 -1,200 Descending FlightAware ADS-B
Sun 06:07:23 PM 47.7348 -121.8210 200° South 289 333 7,900 -1,200 Descending FlightAware ADS-B
Sun 06:07:38 PM 47.7153 -121.8320 201° Southwest 282 325 7,600 -1,161 Descending FlightAware ADS-B
Sun 06:07:54 PM 47.6965 -121.8430 201° Southwest 278 320 7,300 -1,313 Descending FlightAware ADS-B
Sun 06:08:10 PM 47.6776 -121.8530 200° South 275 316 6,900 -1,313 Descending FlightAware ADS-B
Sun 06:08:26 PM 47.6588 -121.8640 202° Southwest 271 312 6,600 -1,000 Descending FlightAware ADS-B
Sun 06:08:40 PM 47.6423 -121.8730 200° South 268 308 6,400 -1,000 Descending FlightAware ADS-B
Sun 06:08:50 PM 47.6309 -121.8800 202° Southwest 267 307 6,200 -1,440 Descending FlightAware ADS-B
Sun 06:09:05 PM 47.6134 -121.8910 203° Southwest 266 306 5,800 -1,355 Descending FlightAware ADS-B
Sun 06:09:21 PM 47.5957 -121.9020 203° Southwest 265 305 5,500 -1,161 Descending FlightAware ADS-B
Sun 06:09:36 PM 47.5787 -121.9130 204° Southwest 263 303 5,200 -1,200 Descending FlightAware ADS-B
Sun 06:09:51 PM 47.5617 -121.9230 202° Southwest 261 300 4,900 -1,161 Descending FlightAware ADS-B
Sun 06:10:07 PM 47.5444 -121.9340 203° Southwest 259 298 4,600 -774 Descending FlightAware ADS-B
Sun 06:10:22 PM 47.5277 -121.9440 202° Southwest 251 289 4,500 -194 Descending FlightAware ADS-B
Sun 06:10:38 PM 47.5117 -121.9530 201° Southwest 238 274 4,500  Level FlightAware ADS-B
Sun 06:10:51 PM 47.4981 -121.9620 204° Southwest 236 272 4,500 -429 Level FlightAware ADS-B
Sun 06:11:06 PM 47.4827 -121.9710 202° Southwest 233 268 4,300 -720 Descending FlightAware ADS-B
Sun 06:11:16 PM 47.4735 -121.9770 204° Southwest 228 262 4,200 -600 Descending FlightAware ADS-B
Sun 06:11:26 PM 47.4639 -121.9830 203° Southwest 223 257 4,100 -429 Descending FlightAware ADS-B
Sun 06:11:30 PM 47.4605 -121.9860 211° Southwest 222 255 4,100 -857 Level FlightAware ADS-B
Sun 06:11:33 PM 47.4576 -121.9890 215° Southwest 220 253 4,000 -1,000 Descending FlightAware ADS-B
Sun 06:11:36 PM 47.4554 -121.9910 212° Southwest 217 250 4,000  Level FlightAware ADS-B
Sun 06:11:41 PM 47.4521 -121.9960 226° Southwest 214 246 4,000  Level FlightAware ADS-B
Sun 06:11:44 PM 47.4499 -122.0000 231° Southwest 212 244 4,000 -1,000 Level FlightAware ADS-B
Sun 06:11:47 PM 47.4480 -122.0030 227° Southwest 211 243 3,900 -1,125 Descending FlightAware ADS-B
Sun 06:12:00 PM 47.4400 -122.0180 232° Southwest 206 237 3,700 -720 Descending FlightAware ADS-B
Sun 06:12:12 PM 47.4335 -122.0310 234° Southwest 202 232 3,600 -706 Descending FlightAware ADS-B
Sun 06:12:17 PM 47.4309 -122.0370 237° Southwest 199 229 3,500 -667 Descending FlightAware ADS-B
Sun 06:12:21 PM 47.4292 -122.0410 238° Southwest 198 228 3,500 -1,000 Level FlightAware ADS-B
Sun 06:12:29 PM 47.4255 -122.0510 241° Southwest 197 227 3,300 -1,250 Descending FlightAware ADS-B
Sun 06:12:45 PM 47.4190 -122.0690 242° Southwest 197 227 3,000 -1,154 Descending FlightAware ADS-B
Sun 06:12:55 PM 47.4146 -122.0820 243° Southwest 198 228 2,800 -960 Descending FlightAware ADS-B
Sun 06:13:10 PM 47.4087 -122.1000 244° Southwest 197 227 2,600 -857 Descending FlightAware ADS-B
Sun 06:13:16 PM 47.4064 -122.1080 247° West 198 228 2,500 -600 Descending FlightAware ADS-B
Sun 06:13:20 PM 47.4052 -122.1120 246° West 198 228 2,500  Level FlightAware ADS-B
Sun 06:13:25 PM 47.4040 -122.1190 256° West 199 229 2,500  Level FlightAware ADS-B
Sun 06:13:28 PM 47.4034 -122.1230 258° West 199 229 2,500  Level FlightAware ADS-B
Sun 06:13:41 PM 47.4014 -122.1400 260° West 192 221 2,500  Level FlightAware ADS-B
Sun 06:13:45 PM 47.4009 -122.1450 262° West 188 216 2,500 -750 Level FlightAware ADS-B
Sun 06:13:49 PM 47.4006 -122.1510 266° West 185 213 2,400 -750 Descending FlightAware ADS-B
Sun 06:13:53 PM 47.4007 -122.1550 272° West 184 212 2,400 -857 Level FlightAware ADS-B
Sun 06:13:56 PM 47.4009 -122.1590 274° West 183 211 2,300 -857 Descending FlightAware ADS-B
Sun 06:14:00 PM 47.4015 -122.1640 280° West 183 211 2,300  Level FlightAware ADS-B
Sun 06:14:04 PM 47.4025 -122.1680 290° West 182 209 2,300  Level FlightAware ADS-B
Sun 06:14:08 PM 47.4038 -122.1730 291° West 182 209 2,300  Level FlightAware ADS-B
Sun 06:14:13 PM 47.4059 -122.1790 297° West 181 208 2,300  Level FlightAware ADS-B
Sun 06:14:16 PM 47.4072 -122.1820 303° West 179 206 2,300 -857 Level FlightAware ADS-B
Sun 06:14:20 PM 47.4089 -122.1860 302° West 176 203 2,200 -667 Descending FlightAware ADS-B
Sun 06:14:25 PM 47.4113 -122.1910 305° West 173 199 2,200  Level FlightAware ADS-B
Sun 06:14:29 PM 47.4134 -122.1940 316° Northwest 172 198 2,200 -750 Level FlightAware ADS-B
Sun 06:14:41 PM 47.4197 -122.2040 313° West 170 196 2,000 -706 Descending FlightAware ADS-B
Sun 06:14:46 PM 47.4229 -122.2090 313° West 169 194 2,000 -667 Level FlightAware ADS-B
Sun 06:14:50 PM 47.4249 -122.2120 315° West 168 193 1,900 -857 Descending FlightAware ADS-B
Sun 06:14:53 PM 47.4267 -122.2140 323° Northwest 168 193 1,900 -750 Level FlightAware ADS-B
Sun 06:14:58 PM 47.4300 -122.2170 328° Northwest 168 193 1,800 -1,091 Descending FlightAware ADS-B
Sun 06:15:04 PM 47.4334 -122.2210 321° Northwest 168 193 1,700 -1,200 Descending FlightAware ADS-B
Sun 06:15:13 PM 47.4396 -122.2260 331° Northwest 164 189 1,500 -1,000 Descending FlightAware ADS-B
Sun 06:15:28 PM 47.4493 -122.2340 331° Northwest 159 183 1,300 -960 Descending FlightAware ADS-B
Sun 06:15:38 PM 47.4554 -122.2390 331° Northwest 156 180 1,100 -1,000 Descending FlightAware ADS-B
Sun 06:15:52 PM 47.4640 -122.2470 328° Northwest 151 174 900 -900 Descending FlightAware ADS-B
Sun 06:15:58 PM 47.4682 -122.2500 334° Northwest 150 173 800 -706 Descending FlightAware ADS-B
Sun 06:16:09 PM 47.4744 -122.2560 327° Northwest 147 169 700 -774 Descending FlightAware ADS-B
Sun 06:16:29 PM 47.4856 -122.2650 331° Northwest 141 162 400 -218 Descending FlightAware ADS-B
Sun 06:17:04 PM 47.5014 -122.2792 331° Northwest 143 165 500 128 Climbing Seattle Center
Sun 06:17:16 PM 47.5092 -122.2861 329° Northwest 139 160 500 36,885 Level Seattle Center
Sun 06:18:05 PM 47.5353 -122.3081 330° Northwest 137 158 38,000 45,918 Climbing Seattle Center

Login

Don't have an account? Register now (free) for customized features, flight alerts, and more!